MMAA/ACA METAR and TAF weather

Enter ICAO airport designator
Station Type Date Time Source
MMAA METAR 2019/08/18 23:49 UTC NOAA

MMAA 182349Z 26008KT 8SM SCT020 BKN100 OVC300 30/25 A2977 RMK SLP076 57008 956 8/572 HZY


Station Type Date Time Source
MMAA Decoded METAR 2019/08/18 23:49 UTC NOAA

Station name not available
Aug 18, 2019 - 07:49 PM EDT / 2019.08.18 2349 UTC
Wind: from the W (260 degrees) at 9 MPH (8 KT):0
Visibility: 8 mile(s):0
Sky conditions: overcast
Temperature: 86 F (30 C)
Heat index: 96.8 F (36.0 C):1
Dew Point: 77 F (25 C)
Relative Humidity: 74%
Pressure (altimeter): 29.77 in. Hg (1008 hPa)
Pressure tendency: 0.02 inches (0.8 hPa) lower than three hours ago
ob: MMAA 182349Z 26008KT 8SM SCT020 BKN100 OVC300 30/25 A2977 RMK SLP076 57008 956 8/572 HZY
cycle: 0

Station Type Date Time Source
MMAA TAF 2019/08/19 00:18 UTC NOAA

TAF COR MMAA 190111Z 1900/2006 26008KT P6SM SCT020 BKN100 OVC200 TX31/1918Z TN26/1910Z
BECMG 1902/1903 6SM VC RA SCT015CB BKN100 OVC200
TEMPO 1904/1908 4SM TSRA OVC015CB
FM190900 30005KT 6SM -RA BKN015 BKN080 BKN220
FM191600 22008KT P6SM BKN020 BKN080
BECMG 1920/1921 6SM -RA BKN015CB BKN080 OVC200
TEMPO 1922/2002 3SM TSRA OVC015CB
FM200300 17008KT 6SM -RA BKN020 OVC080

Example: see airport list